Time;durP1;ratioP1;P1;durP2;ratioP2;P2;SDS_P1;SDS_P2;PMS_P1;PMS_P2;Temp;Humidity;BMP_temperature;BMP_pressure;BME280_temperature;BME280_humidity;BME280_pressure;Samples;Min_cycle;Max_cycle;Signal;HPM_P1;HPM_P2
2022/06/05 00:02:13;;;;;;;10.33;9.23;;;11.10;88.20;;;;;;5054247;28;20291;-87
2022/06/05 00:05:12;;;;;;;10.73;9.63;;;11.10;87.90;;;;;;5050083;28;20196;-87
2022/06/05 00:07:48;;;;;;;13.37;11.00;;;11.00;87.40;;;;;;5055363;28;20188;-87
2022/06/05 00:10:20;;;;;;;11.10;9.87;;;11.00;86.70;;;;;;5055141;28;20176;-87
2022/06/05 00:13:32;;;;;;;16.10;11.40;;;11.00;86.60;;;;;;5053770;28;20182;-87
2022/06/05 00:15:59;;;;;;;17.20;12.67;;;11.00;86.70;;;;;;5020856;28;20198;-87
2022/06/05 00:18:24;;;;;;;15.73;12.17;;;10.90;87.30;;;;;;5053613;28;20274;-87
2022/06/05 00:20:50;;;;;;;14.80;11.67;;;11.00;87.60;;;;;;5054830;28;20214;-87
2022/06/05 00:23:15;;;;;;;13.30;10.77;;;11.00;87.60;;;;;;5053712;28;20666;-86
2022/06/05 00:25:41;;;;;;;12.63;9.87;;;10.90;87.30;;;;;;5053721;28;20183;-87
2022/06/05 00:28:27;;;;;;;12.00;9.83;;;10.90;87.30;;;;;;5053420;28;20693;-87
2022/06/05 00:31:05;;;;;;;12.30;11.00;;;10.90;87.20;;;;;;5054930;28;20163;-87
2022/06/05 00:33:38;;;;;;;18.33;12.07;;;10.80;86.80;;;;;;5054974;28;20707;-85
2022/06/05 00:36:45;;;;;;;14.50;12.40;;;10.80;87.00;;;;;;5053276;28;20176;-86
2022/06/05 00:39:22;;;;;;;14.77;11.50;;;11.00;87.40;;;;;;5053102;28;20164;-86
2022/06/05 00:41:58;;;;;;;13.53;11.80;;;10.90;87.40;;;;;;5052930;28;20171;-86
2022/06/05 00:44:51;;;;;;;14.77;10.23;;;10.80;87.30;;;;;;5053145;28;20270;-87
2022/06/05 00:47:27;;;;;;;13.30;11.57;;;10.70;87.10;;;;;;5052684;28;20212;-87
2022/06/05 00:50:11;;;;;;;16.27;13.30;;;10.80;87.30;;;;;;5052187;28;20225;-87
2022/06/05 00:52:42;;;;;;;15.30;13.03;;;10.70;87.60;;;;;;5054162;28;20213;-87
2022/06/05 00:55:08;;;;;;;16.10;13.00;;;10.60;88.20;;;;;;5053070;28;20184;-87
2022/06/05 00:57:35;;;;;;;19.17;15.33;;;10.50;88.60;;;;;;5053303;28;20250;-86
2022/06/05 01:00:10;;;;;;;19.13;14.63;;;10.50;88.80;;;;;;5052711;28;20184;-87
2022/06/05 01:02:37;;;;;;;18.60;13.97;;;10.40;89.10;;;;;;5054151;28;20191;-86
2022/06/05 01:05:05;;;;;;;15.33;13.30;;;10.40;89.30;;;;;;5054099;28;20242;-87
2022/06/05 01:07:30;;;;;;;16.50;13.33;;;10.30;89.30;;;;;;5052860;28;20200;-87
2022/06/05 01:09:56;;;;;;;15.20;12.93;;;10.40;89.30;;;;;;5054094;28;20191;-87
2022/06/05 01:12:21;;;;;;;16.33;13.83;;;10.30;89.00;;;;;;5053767;28;20179;-86
2022/06/05 01:15:01;;;;;;;16.27;13.10;;;10.30;89.00;;;;;;5053995;28;20176;-87
2022/06/05 01:17:44;;;;;;;16.47;13.07;;;10.00;88.80;;;;;;5052684;28;20199;-86
2022/06/05 01:20:37;;;;;;;19.03;14.53;;;9.90;88.90;;;;;;5054016;28;20160;-86
2022/06/05 01:23:26;;;;;;;16.20;14.40;;;9.70;89.20;;;;;;5053063;28;20298;-86
2022/06/05 01:26:07;;;;;;;16.70;14.87;;;9.80;89.60;;;;;;5052291;28;20230;-86
2022/06/05 01:28:40;;;;;;;21.03;16.07;;;9.80;89.70;;;;;;5052384;28;20184;-86
2022/06/05 01:31:31;;;;;;;21.93;15.00;;;9.60;89.70;;;;;;5053753;28;20161;-85
2022/06/05 01:34:09;;;;;;;22.63;15.27;;;9.40;89.90;;;;;;5052555;28;20172;-86
2022/06/05 01:36:42;;;;;;;23.07;17.90;;;9.30;90.30;;;;;;5053420;28;20234;-86
2022/06/05 01:39:16;;;;;;;22.40;16.93;;;9.40;90.60;;;;;;5053013;28;20178;-88
2022/06/05 01:41:59;;;;;;;17.70;15.30;;;9.40;90.70;;;;;;5052383;28;20190;-88
2022/06/05 01:44:43;;;;;;;20.70;15.80;;;9.50;90.80;;;;;;5052620;28;20209;-88
2022/06/05 01:47:19;;;;;;;19.57;14.90;;;9.50;90.70;;;;;;5052350;28;20226;-88
2022/06/05 01:49:52;;;;;;;17.80;14.33;;;9.60;90.70;;;;;;5052559;28;20176;-89
2022/06/05 01:52:24;;;;;;;22.17;14.07;;;9.60;90.50;;;;;;5052637;28;20188;-88
2022/06/05 01:55:04;;;;;;;20.17;14.60;;;9.50;90.20;;;;;;5053026;28;20180;-88
2022/06/05 01:57:31;;;;;;;17.93;14.90;;;9.30;89.90;;;;;;5053456;28;20828;-88
2022/06/05 02:00:06;;;;;;;19.90;16.13;;;9.20;90.00;;;;;;5054952;28;20234;-88
2022/06/05 02:02:36;;;;;;;24.03;17.47;;;9.10;90.30;;;;;;5056524;28;20203;-88
2022/06/05 02:05:11;;;;;;;24.07;17.23;;;9.20;90.60;;;;;;5056756;28;20602;-88
2022/06/05 02:07:43;;;;;;;23.67;17.30;;;9.10;90.80;;;;;;5056485;28;20684;-88
2022/06/05 02:10:13;;;;;;;25.60;17.27;;;8.90;91.00;;;;;;5056457;28;20225;-88
2022/06/05 02:12:38;;;;;;;24.37;18.23;;;8.80;91.30;;;;;;5056210;28;20179;-88
2022/06/05 02:15:05;;;;;;;30.47;19.63;;;8.80;91.50;;;;;;5056138;28;20180;-88
2022/06/05 02:17:31;;;;;;;35.30;20.47;;;8.80;91.80;;;;;;5056160;28;20662;-88
2022/06/05 02:20:00;;;;;;;35.57;21.60;;;8.80;92.00;;;;;;5057455;28;20187;-87
2022/06/05 02:22:48;;;;;;;26.87;19.37;;;8.90;92.20;;;;;;5057264;28;20717;-88
2022/06/05 02:25:16;;;;;;;26.17;19.40;;;9.00;92.30;;;;;;5056603;28;20176;-88
2022/06/05 02:27:43;;;;;;;25.13;19.17;;;9.10;92.30;;;;;;5056281;28;20196;-88
2022/06/05 02:30:12;;;;;;;24.93;19.17;;;9.00;92.20;;;;;;5056145;28;20183;-88
2022/06/05 02:32:57;;;;;;;24.27;17.17;;;9.00;92.10;;;;;;5057418;28;20631;-88
2022/06/05 02:35:58;;;;;;;19.10;15.30;;;9.00;92.10;;;;;;5055657;28;20242;-88
2022/06/05 02:39:01;;;;;;;19.63;13.70;;;9.10;92.10;;;;;;5052903;28;20192;-90
2022/06/05 02:41:48;;;;;;;23.83;16.60;;;9.00;92.00;;;;;;5057235;28;20175;-88
2022/06/05 02:44:38;;;;;;;24.57;17.37;;;9.10;91.90;;;;;;5056224;28;20218;-88
2022/06/05 02:47:39;;;;;;;24.70;18.50;;;9.10;91.80;;;;;;5056640;28;20613;-88
2022/06/05 02:50:30;;;;;;;26.07;19.30;;;9.20;91.90;;;;;;5055685;28;20197;-88
2022/06/05 02:53:02;;;;;;;26.47;19.83;;;9.30;92.00;;;;;;5057518;28;20254;-88
2022/06/05 02:55:28;;;;;;;27.23;19.03;;;9.20;92.10;;;;;;5055957;28;20237;-88
2022/06/05 02:57:53;;;;;;;23.70;19.23;;;9.00;92.00;;;;;;5055611;28;20195;-88
2022/06/05 03:00:25;;;;;;;30.97;20.57;;;8.90;92.20;;;;;;5055804;28;20180;-88
2022/06/05 03:05:37;;;;;;;35.90;23.20;;;8.80;92.50;;;;;;5057206;28;20171;-88
2022/06/05 03:08:04;;;;;;;29.20;21.73;;;8.80;92.60;;;;;;5056786;28;20183;-88
2022/06/05 03:10:29;;;;;;;30.67;21.73;;;8.80;92.70;;;;;;5056636;28;20172;-88
2022/06/05 03:12:55;;;;;;;34.50;23.47;;;8.80;92.80;;;;;;5054464;28;20184;-88
2022/06/05 03:15:21;;;;;;;36.30;25.30;;;9.10;93.10;;;;;;5055036;28;20184;-88
2022/06/05 03:17:47;;;;;;;36.13;25.43;;;9.50;93.30;;;;;;5055109;28;20577;-88
2022/06/05 03:20:15;;;;;;;35.20;25.73;;;9.70;93.00;;;;;;5056395;28;20184;-88
2022/06/05 03:22:41;;;;;;;36.07;23.47;;;9.70;92.60;;;;;;5056212;28;20616;-88
2022/06/05 03:25:07;;;;;;;32.60;22.50;;;9.70;92.20;;;;;;5054949;28;20179;-88
2022/06/05 03:27:33;;;;;;;32.97;21.83;;;9.60;92.10;;;;;;5056044;28;20188;-88
2022/06/05 03:29:59;;;;;;;32.47;22.93;;;9.50;92.00;;;;;;5055158;28;20180;-88
2022/06/05 03:32:26;;;;;;;36.70;22.63;;;9.50;92.10;;;;;;5056206;28;20266;-88
2022/06/05 03:34:51;;;;;;;31.77;22.90;;;9.50;92.20;;;;;;5055093;28;20180;-88
2022/06/05 03:37:17;;;;;;;34.83;24.23;;;9.60;92.30;;;;;;5056409;28;20203;-88
2022/06/05 03:39:42;;;;;;;32.80;23.27;;;9.80;92.40;;;;;;5055015;28;20601;-89
2022/06/05 03:42:08;;;;;;;43.07;24.37;;;9.90;92.30;;;;;;5054803;28;20213;-88
2022/06/05 03:44:39;;;;;;;34.77;23.00;;;10.10;92.20;;;;;;5054672;28;20180;-88
2022/06/05 03:47:05;;;;;;;33.53;23.50;;;10.10;92.10;;;;;;5054278;28;20199;-88
2022/06/05 03:49:32;;;;;;;29.53;21.80;;;10.20;92.00;;;;;;5055857;28;20629;-89
2022/06/05 03:51:57;;;;;;;31.47;21.97;;;10.20;91.90;;;;;;5056171;28;20176;-88
2022/06/05 03:54:23;;;;;;;28.73;21.60;;;10.30;92.00;;;;;;5054826;28;20266;-88
2022/06/05 03:56:49;;;;;;;31.10;21.90;;;10.30;92.00;;;;;;5054395;28;20195;-88
2022/06/05 03:59:14;;;;;;;25.87;20.97;;;10.30;92.00;;;;;;5054536;28;20172;-88
2022/06/05 04:01:40;;;;;;;29.53;22.27;;;10.40;92.00;;;;;;5054202;28;20259;-88
2022/06/05 04:04:06;;;;;;;30.27;21.80;;;10.50;92.00;;;;;;5053950;28;20291;-89
2022/06/05 04:06:32;;;;;;;33.17;21.43;;;10.60;92.00;;;;;;5053968;28;20224;-88
2022/06/05 04:08:59;;;;;;;28.90;20.53;;;10.80;91.90;;;;;;5055539;28;20526;-88
2022/06/05 04:11:27;;;;;;;33.43;21.50;;;10.80;91.90;;;;;;5055394;28;20172;-88
2022/06/05 04:13:53;;;;;;;24.20;20.27;;;10.80;91.80;;;;;;5055402;28;20259;-88
2022/06/05 04:16:22;;;;;;;27.77;20.87;;;11.00;91.90;;;;;;5053873;28;20242;-89
2022/06/05 04:18:49;;;;;;;29.47;20.23;;;11.10;91.80;;;;;;5055142;28;20175;-88
2022/06/05 04:21:21;;;;;;;27.17;20.53;;;11.10;91.70;;;;;;5053870;28;20176;-88
2022/06/05 04:23:47;;;;;;;26.83;19.83;;;11.10;91.70;;;;;;5054870;28;20196;-88
2022/06/05 04:26:15;;;;;;;29.00;20.27;;;11.20;91.80;;;;;;5053727;28;20610;-88
2022/06/05 04:28:41;;;;;;;29.20;21.40;;;11.20;91.90;;;;;;5053927;28;20172;-88
2022/06/05 04:31:44;;;;;;;31.00;19.57;;;11.30;92.00;;;;;;5053890;28;20259;-88
2022/06/05 04:34:11;;;;;;;26.30;20.20;;;11.40;92.10;;;;;;5051446;28;20214;-88
2022/06/05 04:36:37;;;;;;;30.43;20.70;;;11.40;92.10;;;;;;5053864;28;20203;-88
2022/06/05 04:39:04;;;;;;;28.33;20.87;;;11.50;92.10;;;;;;5053688;28;20271;-89
2022/06/05 04:41:30;;;;;;;26.87;21.80;;;11.50;92.10;;;;;;5054902;28;20168;-88
2022/06/05 04:43:57;;;;;;;26.30;21.50;;;11.60;92.20;;;;;;5053600;28;20314;-88
2022/06/05 04:46:25;;;;;;;27.20;21.07;;;11.70;92.20;;;;;;5053587;28;20199;-88
2022/06/05 04:48:51;;;;;;;26.87;20.73;;;11.70;92.30;;;;;;5053324;28;20740;-88
2022/06/05 04:51:20;;;;;;;29.20;21.57;;;11.80;92.30;;;;;;5054756;28;20199;-88
2022/06/05 04:53:47;;;;;;;25.03;20.73;;;11.90;92.30;;;;;;5054034;28;20208;-89
2022/06/05 04:56:16;;;;;;;28.23;21.30;;;11.90;92.30;;;;;;5054483;28;20195;-88
2022/06/05 04:58:42;;;;;;;24.50;20.47;;;12.00;92.30;;;;;;5053109;28;20233;-89
2022/06/05 05:01:35;;;;;;;25.63;20.13;;;12.10;92.30;;;;;;5052914;28;20183;-89
2022/06/05 05:04:08;;;;;;;25.93;20.30;;;12.20;92.30;;;;;;5054323;28;20275;-89
2022/06/05 05:06:35;;;;;;;27.17;19.70;;;12.20;92.20;;;;;;5054095;28;20267;-89
2022/06/05 05:09:02;;;;;;;25.40;20.37;;;12.30;92.20;;;;;;5052848;28;20180;-89
2022/06/05 05:11:28;;;;;;;25.07;19.23;;;12.40;92.10;;;;;;5053941;28;20194;-90
2022/06/05 05:13:54;;;;;;;25.40;18.60;;;12.40;92.00;;;;;;5052714;28;20546;-89
2022/06/05 05:16:20;;;;;;;24.07;19.70;;;12.50;92.00;;;;;;5053911;28;20700;-88
2022/06/05 05:18:46;;;;;;;25.00;19.13;;;12.60;91.80;;;;;;5052946;28;20180;-89
2022/06/05 05:21:14;;;;;;;29.33;19.83;;;12.80;91.90;;;;;;5052626;28;20633;-89
2022/06/05 05:23:41;;;;;;;24.17;19.33;;;12.90;91.90;;;;;;5052683;28;20203;-89
2022/06/05 05:26:13;;;;;;;24.63;18.87;;;13.00;91.80;;;;;;5053881;28;20202;-89
2022/06/05 05:28:40;;;;;;;22.83;17.57;;;13.10;91.60;;;;;;5052502;28;20588;-89
2022/06/05 05:31:26;;;;;;;25.10;19.50;;;13.20;91.50;;;;;;5052410;28;20182;-89
2022/06/05 05:33:52;;;;;;;26.37;19.33;;;13.40;91.40;;;;;;5051986;28;20176;-89
2022/06/05 05:36:19;;;;;;;22.13;16.80;;;13.60;91.20;;;;;;5052126;28;20210;-89
2022/06/05 05:44:15;;;;;;;19.73;16.27;;;14.00;90.30;;;;;;5054075;28;20170;-89
2022/06/05 05:46:42;;;;;;;21.73;16.73;;;14.20;89.90;;;;;;5053317;28;20680;-89
2022/06/05 05:49:09;;;;;;;17.23;15.37;;;14.30;89.50;;;;;;5053971;28;20198;-89
2022/06/05 05:51:36;;;;;;;22.13;15.27;;;14.50;88.90;;;;;;5052462;28;20548;-89
2022/06/05 05:54:01;;;;;;;21.77;14.37;;;14.50;88.20;;;;;;5053605;28;20259;-89
2022/06/05 05:56:27;;;;;;;21.97;14.93;;;14.70;87.90;;;;;;5052540;28;20242;-89
2022/06/05 05:58:52;;;;;;;18.20;14.33;;;14.80;87.70;;;;;;5052539;28;20237;-88
2022/06/05 06:01:18;;;;;;;14.83;13.33;;;14.90;87.10;;;;;;5053589;28;20234;-89
2022/06/05 06:03:43;;;;;;;16.13;13.43;;;15.10;87.20;;;;;;5052170;28;20249;-89
2022/06/05 06:06:09;;;;;;;17.13;13.30;;;15.20;86.30;;;;;;5052185;28;20172;-89
2022/06/05 06:08:35;;;;;;;15.93;12.73;;;15.30;85.40;;;;;;5052325;28;20229;-88
2022/06/05 06:11:01;;;;;;;14.77;12.23;;;15.40;85.00;;;;;;5053779;28;20204;-89
2022/06/05 06:13:26;;;;;;;21.95;12.75;;;15.60;84.70;;;;;;5052254;28;20200;-89
2022/06/05 06:15:52;;;;;;;13.90;11.48;;;15.70;84.70;;;;;;5052025;28;20703;-90
2022/06/05 06:18:17;;;;;;;18.25;12.07;;;15.90;84.40;;;;;;5053290;28;20172;-89
2022/06/05 06:20:45;;;;;;;14.23;11.32;;;16.00;84.20;;;;;;5052211;28;20175;-89
2022/06/05 06:23:11;;;;;;;12.00;10.45;;;16.20;83.10;;;;;;5051881;28;20738;-89
2022/06/05 06:25:37;;;;;;;12.32;10.05;;;16.20;82.80;;;;;;5053408;28;20255;-89
2022/06/05 06:28:04;;;;;;;14.45;10.13;;;16.40;82.60;;;;;;5051777;28;20195;-89
2022/06/05 06:30:32;;;;;;;9.68;8.40;;;16.50;81.10;;;;;;5051916;28;20230;-89
2022/06/05 06:32:58;;;;;;;14.43;8.40;;;16.70;80.10;;;;;;5052632;28;20172;-89
2022/06/05 06:35:23;;;;;;;10.98;9.02;;;16.80;80.20;;;;;;5052209;28;20202;-88
2022/06/05 06:37:49;;;;;;;12.45;8.30;;;17.00;80.00;;;;;;5052979;28;20222;-88
2022/06/05 06:40:15;;;;;;;9.73;7.47;;;17.10;79.30;;;;;;5052127;28;20192;-89
2022/06/05 06:42:40;;;;;;;12.13;7.50;;;17.10;77.90;;;;;;5051520;28;20298;-89
2022/06/05 06:45:06;;;;;;;10.38;8.27;;;17.20;76.80;;;;;;5053151;28;20177;-89
2022/06/05 06:47:33;;;;;;;13.00;7.68;;;17.40;77.60;;;;;;5055642;28;20212;-89
2022/06/05 06:49:59;;;;;;;8.57;6.95;;;17.50;77.50;;;;;;5055816;28;20221;-89
2022/06/05 06:52:25;;;;;;;11.57;8.02;;;17.60;75.50;;;;;;5055775;28;20267;-89
2022/06/05 06:54:51;;;;;;;10.27;8.35;;;17.70;75.30;;;;;;5055791;28;20183;-89
2022/06/05 06:57:17;;;;;;;9.52;7.65;;;17.70;76.60;;;;;;5055887;28;20235;-89
2022/06/05 06:59:42;;;;;;;9.18;7.70;;;17.80;75.90;;;;;;5055612;28;20176;-90
2022/06/05 07:02:08;;;;;;;10.95;7.45;;;17.80;74.80;;;;;;5056570;28;20171;-91
2022/06/05 07:04:34;;;;;;;10.45;7.38;;;17.90;75.00;;;;;;5056774;28;20629;-88
2022/06/05 07:07:00;;;;;;;8.48;7.28;;;17.90;75.10;;;;;;5055639;28;20595;-88
2022/06/05 07:09:25;;;;;;;8.50;7.60;;;18.00;75.20;;;;;;5055612;28;20638;-88
2022/06/05 07:11:51;;;;;;;8.63;7.45;;;18.00;75.20;;;;;;5054955;28;20179;-88
2022/06/05 07:14:16;;;;;;;11.07;7.43;;;18.10;75.10;;;;;;5055738;28;20277;-88
2022/06/05 07:16:42;;;;;;;10.73;7.00;;;18.20;74.90;;;;;;5057320;28;20192;-87
2022/06/05 07:19:08;;;;;;;10.40;6.60;;;18.30;72.50;;;;;;5056168;28;20203;-88
2022/06/05 07:21:34;;;;;;;10.63;7.07;;;18.30;73.30;;;;;;5057720;28;20638;-90
2022/06/05 07:24:00;;;;;;;7.95;6.40;;;18.40;72.60;;;;;;5055975;28;20196;-89
2022/06/05 07:26:28;;;;;;;12.38;7.30;;;18.40;72.50;;;;;;5056138;28;20195;-89
2022/06/05 07:28:56;;;;;;;7.28;6.10;;;18.60;72.10;;;;;;5054797;28;20263;-89
2022/06/05 07:31:22;;;;;;;9.10;7.00;;;18.60;71.20;;;;;;5054868;28;20176;-89
2022/06/05 07:33:47;;;;;;;8.57;5.70;;;18.70;70.80;;;;;;5055644;28;20173;-89
2022/06/05 07:36:16;;;;;;;8.98;5.22;;;18.80;71.50;;;;;;5055471;28;20199;-90
2022/06/05 07:38:43;;;;;;;6.82;5.20;;;18.90;69.60;;;;;;5055961;28;20176;-91
2022/06/05 07:41:21;;;;;;;10.38;6.32;;;18.80;69.10;;;;;;5054608;28;20183;-89
2022/06/05 07:43:47;;;;;;;6.93;5.78;;;18.90;68.10;;;;;;5055339;28;20692;-87
2022/06/05 07:46:13;;;;;;;8.32;5.65;;;19.00;69.20;;;;;;5055340;28;20176;-86
2022/06/05 07:48:39;;;;;;;6.00;5.35;;;19.10;69.30;;;;;;5055895;28;20192;-88
2022/06/05 07:56:46;;;;;;;7.63;5.38;;;19.30;67.40;;;;;;5055887;28;20202;-88
2022/06/05 07:59:11;;;;;;;5.63;4.82;;;19.40;66.00;;;;;;5054677;28;20176;-88
2022/06/05 08:01:37;;;;;;;5.40;4.60;;;19.50;66.70;;;;;;5054084;28;20172;-88
2022/06/05 08:04:04;;;;;;;6.45;5.03;;;19.60;66.20;;;;;;5053889;28;20682;-88
2022/06/05 08:06:30;;;;;;;5.90;5.03;;;19.60;67.00;;;;;;5055030;28;20199;-88
2022/06/05 08:08:56;;;;;;;5.57;4.40;;;19.70;65.70;;;;;;5054461;28;20178;-88
2022/06/05 08:11:21;;;;;;;5.05;4.10;;;19.70;65.10;;;;;;5055606;28;20553;-89
2022/06/05 08:13:47;;;;;;;6.93;4.78;;;19.80;66.60;;;;;;5054197;28;20230;-86
2022/06/05 08:16:13;;;;;;;8.02;4.68;;;19.80;63.90;;;;;;5055510;28;20882;-88
2022/06/05 08:18:39;;;;;;;4.70;3.65;;;19.90;64.90;;;;;;5054863;28;20180;-88
2022/06/05 08:21:05;;;;;;;6.57;4.13;;;19.90;63.10;;;;;;5053980;28;20275;-88
2022/06/05 08:23:30;;;;;;;5.35;3.80;;;19.90;62.50;;;;;;5053857;28;20298;-88
2022/06/05 08:25:56;;;;;;;7.22;4.13;;;20.10;64.20;;;;;;5054944;28;20234;-88
2022/06/05 08:28:25;;;;;;;4.85;3.72;;;20.20;62.30;;;;;;5053729;28;20642;-88
2022/06/05 08:30:53;;;;;;;5.05;4.18;;;20.30;63.20;;;;;;5053655;28;20689;-88
2022/06/05 08:33:19;;;;;;;5.32;3.97;;;20.30;59.80;;;;;;5053447;28;20191;-88
2022/06/05 08:35:46;;;;;;;4.63;3.80;;;20.40;62.30;;;;;;5054543;28;20172;-89
2022/06/05 08:41:27;;;;;;;5.22;4.00;;;20.70;62.10;;;;;;5055156;28;20167;-89
2022/06/05 08:43:56;;;;;;;6.32;4.15;;;20.70;60.70;;;;;;5053272;28;20203;-88
2022/06/05 08:46:28;;;;;;;6.05;3.22;;;20.70;61.00;;;;;;5054836;28;20188;-89
2022/06/05 08:49:24;;;;;;;5.22;3.65;;;20.80;60.60;;;;;;5053183;28;20192;-89
2022/06/05 08:52:16;;;;;;;6.22;4.13;;;21.00;61.80;;;;;;5013054;28;20271;-89
2022/06/05 08:54:58;;;;;;;4.85;3.78;;;21.10;60.40;;;;;;5053197;28;20172;-89
2022/06/05 08:57:30;;;;;;;6.47;3.85;;;21.10;58.60;;;;;;5054390;28;20275;-88
2022/06/05 09:00:19;;;;;;;3.50;3.20;;;21.30;60.20;;;;;;5053257;28;20703;-88
2022/06/05 09:02:47;;;;;;;6.03;3.33;;;21.40;59.10;;;;;;5054233;28;20532;-88
2022/06/05 09:05:27;;;;;;;3.97;3.10;;;21.50;61.70;;;;;;5053024;28;20218;-88
2022/06/05 09:07:56;;;;;;;7.03;3.30;;;21.70;60.50;;;;;;5053028;28;20191;-88
2022/06/05 09:10:35;;;;;;;5.78;3.53;;;21.60;58.20;;;;;;5051942;28;20176;-88
2022/06/05 09:13:18;;;;;;;3.40;3.10;;;21.60;56.30;;;;;;5053018;28;20191;-88
2022/06/05 09:16:15;;;;;;;6.85;3.60;;;21.60;56.60;;;;;;5052796;28;20543;-89
2022/06/05 09:18:46;;;;;;;6.80;3.58;;;21.70;57.50;;;;;;5050785;28;20661;-89
2022/06/05 09:21:25;;;;;;;5.50;2.90;;;21.80;57.70;;;;;;5052580;28;20176;-89
2022/06/05 09:24:04;;;;;;;7.25;3.05;;;21.90;56.20;;;;;;5052631;28;20203;-88
2022/06/05 09:26:50;;;;;;;3.67;3.20;;;22.00;56.40;;;;;;5052406;28;20242;-88
2022/06/05 09:29:43;;;;;;;5.07;2.72;;;21.90;54.10;;;;;;5053274;28;20195;-87
2022/06/05 09:32:17;;;;;;;4.38;2.95;;;21.90;52.90;;;;;;5054524;28;20202;-88
2022/06/05 09:34:56;;;;;;;4.55;3.10;;;21.90;54.40;;;;;;5054609;28;20151;-89
2022/06/05 09:37:43;;;;;;;3.45;2.97;;;21.90;54.80;;;;;;5054209;28;20329;-88
2022/06/05 09:40:20;;;;;;;4.45;3.08;;;22.00;54.90;;;;;;5052276;28;20251;-89
2022/06/05 09:43:09;;;;;;;3.78;2.90;;;22.10;55.00;;;;;;5052321;28;20206;-89
2022/06/05 09:46:08;;;;;;;3.72;3.33;;;22.10;55.60;;;;;;5052463;28;20691;-88
2022/06/05 09:48:50;;;;;;;3.33;2.97;;;22.10;55.10;;;;;;5052603;28;20731;-89
2022/06/05 09:51:17;;;;;;;7.70;3.15;;;22.00;56.50;;;;;;5053000;28;20207;-91
2022/06/05 09:53:54;;;;;;;5.47;3.40;;;22.10;54.60;;;;;;5053438;28;20176;-91
2022/06/05 09:56:28;;;;;;;4.53;3.13;;;22.10;55.60;;;;;;5053166;28;20195;-92
2022/06/05 09:59:19;;;;;;;5.50;3.30;;;22.20;54.50;;;;;;5056869;28;20164;-92
2022/06/05 10:01:56;;;;;;;4.90;3.35;;;22.30;55.50;;;;;;5059024;28;20168;-92
2022/06/05 10:04:27;;;;;;;4.18;2.97;;;22.30;53.00;;;;;;5056408;28;20604;-91
2022/06/05 10:07:13;;;;;;;3.53;2.97;;;22.20;55.20;;;;;;5055176;28;20214;-90
2022/06/05 10:09:45;;;;;;;3.80;3.13;;;21.90;56.10;;;;;;5052527;28;20183;-89
2022/06/05 10:12:22;;;;;;;5.40;3.50;;;22.00;56.20;;;;;;5036338;28;20682;-87
2022/06/05 10:15:06;;;;;;;6.22;3.22;;;21.90;53.90;;;;;;5053664;28;20163;-87
2022/06/05 10:18:01;;;;;;;3.72;3.20;;;22.20;55.90;;;;;;5053813;28;20188;-89
2022/06/05 10:20:39;;;;;;;3.42;3.13;;;22.20;55.50;;;;;;5053214;28;20202;-89
2022/06/05 10:23:28;;;;;;;4.45;3.28;;;22.00;54.40;;;;;;5056774;28;20195;-88
2022/06/05 10:26:13;;;;;;;3.35;3.05;;;22.00;55.60;;;;;;5056705;28;20164;-89
2022/06/05 10:28:41;;;;;;;3.60;3.15;;;22.20;56.90;;;;;;5055986;28;20168;-88
2022/06/05 10:31:21;;;;;;;4.88;3.35;;;22.40;56.30;;;;;;5055877;28;20168;-89
2022/06/05 10:34:20;;;;;;;5.18;3.13;;;22.60;56.50;;;;;;5056271;28;20261;-88
2022/06/05 10:37:12;;;;;;;3.95;3.53;;;22.60;54.70;;;;;;5023240;28;20204;-89
2022/06/05 10:40:32;;;;;;;3.22;2.92;;;22.70;54.20;;;;;;5055821;28;20168;-90
2022/06/05 10:43:03;;;;;;;3.83;3.28;;;22.70;52.80;;;;;;4979402;28;20198;-90
2022/06/05 10:45:49;;;;;;;3.53;2.88;;;22.70;52.90;;;;;;5042157;28;20186;-90
2022/06/05 10:48:40;;;;;;;6.63;3.03;;;23.00;53.10;;;;;;5055684;28;20235;-89
2022/06/05 10:51:35;;;;;;;6.05;3.22;;;23.00;51.70;;;;;;5044859;28;20176;-89
2022/06/05 10:54:20;;;;;;;5.05;3.20;;;23.20;51.20;;;;;;5057843;28;20165;-89
2022/06/05 10:57:07;;;;;;;4.40;3.08;;;23.20;52.30;;;;;;5055611;28;20188;-89
2022/06/05 10:59:47;;;;;;;3.88;3.17;;;23.30;51.30;;;;;;5055670;28;20184;-89
2022/06/05 11:02:31;;;;;;;7.55;3.55;;;23.50;52.80;;;;;;5056433;28;20197;-88
2022/06/05 11:05:35;;;;;;;4.10;3.22;;;23.50;51.60;;;;;;5057814;28;20168;-88
2022/06/05 11:08:27;;;;;;;4.10;3.08;;;23.20;53.00;;;;;;5056234;28;20237;-89
2022/06/05 11:14:21;;;;;;;3.38;3.03;;;23.10;52.50;;;;;;5056309;28;20174;-89
2022/06/05 11:17:00;;;;;;;3.58;3.22;;;23.10;51.50;;;;;;5054269;28;20207;-89
2022/06/05 11:19:55;;;;;;;6.35;3.40;;;23.10;52.30;;;;;;5055032;28;20203;-89
2022/06/05 11:22:21;;;;;;;3.33;3.03;;;23.00;52.60;;;;;;5055200;28;20539;-86
2022/06/05 11:24:50;;;;;;;3.65;3.10;;;23.20;54.30;;;;;;5055722;28;20172;-87
2022/06/05 11:27:36;;;;;;;6.10;3.15;;;23.20;52.20;;;;;;5055764;28;20199;-87
2022/06/05 11:30:15;;;;;;;4.10;3.10;;;23.30;49.00;;;;;;5057427;28;20160;-87
2022/06/05 11:32:56;;;;;;;4.90;3.42;;;23.30;53.80;;;;;;5055163;28;20176;-87
2022/06/05 11:35:55;;;;;;;3.33;2.90;;;23.40;52.10;;;;;;5055922;28;20191;-87
2022/06/05 11:38:48;;;;;;;3.42;2.90;;;23.40;50.90;;;;;;5056149;28;20266;-87
2022/06/05 11:41:44;;;;;;;5.70;3.83;;;23.30;50.60;;;;;;5056599;28;20156;-87
2022/06/05 11:44:21;;;;;;;4.35;3.10;;;23.50;51.70;;;;;;5057953;28;20184;-87
2022/06/05 11:47:04;;;;;;;4.78;3.17;;;23.40;52.10;;;;;;5056725;28;20183;-88
2022/06/05 11:50:16;;;;;;;3.33;3.05;;;23.50;53.10;;;;;;5056594;28;20247;-87
2022/06/05 11:52:54;;;;;;;4.55;3.08;;;23.50;52.20;;;;;;5054083;28;20681;-87
2022/06/05 11:55:40;;;;;;;3.45;3.17;;;23.60;52.40;;;;;;5055353;28;20198;-87
2022/06/05 11:58:08;;;;;;;4.25;3.63;;;23.80;52.80;;;;;;5054990;28;20200;-88
2022/06/05 12:00:52;;;;;;;3.53;3.13;;;23.90;53.70;;;;;;5056287;28;20661;-87
2022/06/05 12:03:46;;;;;;;7.00;3.30;;;23.80;52.90;;;;;;5055683;28;20245;-87
2022/06/05 12:06:18;;;;;;;3.30;2.88;;;23.50;51.30;;;;;;5056241;28;20243;-87
2022/06/05 12:08:59;;;;;;;3.53;3.22;;;23.40;50.70;;;;;;5056193;28;20176;-87
2022/06/05 12:11:54;;;;;;;4.10;3.47;;;23.50;53.70;;;;;;5055191;28;20184;-87
2022/06/05 12:14:27;;;;;;;3.90;3.13;;;23.50;52.80;;;;;;5055450;28;20168;-87
2022/06/05 12:17:14;;;;;;;4.10;2.92;;;23.30;50.70;;;;;;5055220;28;20208;-86
2022/06/05 12:20:10;;;;;;;4.82;2.88;;;23.10;53.10;;;;;;5055663;28;20172;-87
2022/06/05 12:23:01;;;;;;;3.35;3.05;;;23.00;53.70;;;;;;5054891;28;20223;-87
2022/06/05 12:25:48;;;;;;;6.97;3.25;;;23.00;52.10;;;;;;5048321;28;20258;-87
2022/06/05 12:28:47;;;;;;;3.15;2.85;;;23.10;55.70;;;;;;5056530;28;20559;-88
2022/06/05 12:31:18;;;;;;;4.05;3.13;;;23.20;53.70;;;;;;5056414;28;20192;-87
2022/06/05 12:34:10;;;;;;;4.00;3.08;;;23.30;51.90;;;;;;5054956;28;20175;-87
2022/06/05 12:36:41;;;;;;;5.40;3.33;;;23.40;51.30;;;;;;5056183;28;20198;-87
2022/06/05 12:39:17;;;;;;;4.00;2.85;;;23.50;51.80;;;;;;5055943;28;20210;-87
2022/06/05 12:42:03;;;;;;;5.30;3.13;;;23.40;54.60;;;;;;5055284;28;20160;-87
2022/06/05 12:44:32;;;;;;;6.43;2.63;;;23.40;49.70;;;;;;5055675;28;20192;-87
2022/06/05 12:47:09;;;;;;;3.28;2.70;;;23.40;54.80;;;;;;5054915;28;20196;-87
2022/06/05 12:49:53;;;;;;;2.65;2.40;;;23.30;54.00;;;;;;5054819;28;20164;-87
2022/06/05 12:52:40;;;;;;;2.92;2.60;;;23.20;52.40;;;;;;5054940;28;20243;-87
2022/06/05 12:55:18;;;;;;;3.90;2.65;;;23.00;52.10;;;;;;5056318;28;20175;-86
2022/06/05 12:57:46;;;;;;;3.13;2.70;;;23.00;52.20;;;;;;5054726;28;20191;-87
2022/06/05 13:00:29;;;;;;;3.22;2.22;;;23.10;56.50;;;;;;5054743;28;20176;-87
2022/06/05 13:03:11;;;;;;;3.90;2.75;;;23.10;54.30;;;;;;5056284;28;20676;-87
2022/06/05 13:05:42;;;;;;;4.18;2.30;;;23.10;50.80;;;;;;5055217;28;20233;-86
2022/06/05 13:08:22;;;;;;;2.53;2.17;;;23.10;51.30;;;;;;5056412;28;20187;-86
2022/06/05 13:11:03;;;;;;;3.60;2.22;;;23.10;51.60;;;;;;5055066;28;20533;-86
2022/06/05 13:13:38;;;;;;;2.33;2.13;;;23.20;55.70;;;;;;5056288;28;20530;-87
2022/06/05 13:16:11;;;;;;;2.83;2.15;;;23.10;52.40;;;;;;5054700;28;20168;-87
2022/06/05 13:18:42;;;;;;;3.17;2.45;;;23.00;51.40;;;;;;5055640;28;20161;-87
2022/06/05 13:21:33;;;;;;;3.05;2.38;;;23.00;52.30;;;;;;5054150;28;20183;-87
2022/06/05 13:24:50;;;;;;;2.80;2.58;;;23.00;50.30;;;;;;5053848;28;20195;-87
2022/06/05 13:27:35;;;;;;;5.97;2.85;;;23.20;52.50;;;;;;5053250;28;20192;-87
2022/06/05 13:30:08;;;;;;;6.30;2.58;;;23.50;52.40;;;;;;5055094;28;20160;-87
2022/06/05 13:33:00;;;;;;;2.75;2.55;;;23.50;49.10;;;;;;5053668;28;20665;-87
2022/06/05 13:35:55;;;;;;;4.13;2.60;;;23.50;50.60;;;;;;5053832;28;20187;-87
2022/06/05 13:39:02;;;;;;;2.50;2.28;;;23.40;49.00;;;;;;5055403;28;20174;-87